createdAt,value
2023-01-19T00:02:02.709Z,99637.69
2023-01-19T00:04:06.549Z,99640.09
2023-01-19T00:06:10.049Z,99643.50
2023-01-19T00:08:16.583Z,99641.72
2023-01-19T00:10:20.999Z,99645.09
2023-01-19T00:12:23.799Z,99643.44
2023-01-19T00:14:26.948Z,99643.50
2023-01-19T00:16:29.804Z,99645.09
2023-01-19T00:18:32.654Z,99656.16
2023-01-19T00:20:36.270Z,99650.97
2023-01-19T00:22:39.052Z,99656.03
2023-01-19T00:24:41.923Z,99654.97
2023-01-19T00:26:46.225Z,99657.59
2023-01-19T00:28:49.704Z,99662.63
2023-01-19T00:30:53.019Z,99659.97
2023-01-19T00:32:55.864Z,99658.13
2023-01-19T00:34:58.776Z,99652.16
2023-01-19T00:37:02.974Z,99658.06
2023-01-19T00:39:05.767Z,99669.09
2023-01-19T00:41:08.512Z,99665.81
2023-01-19T00:43:11.677Z,99670.38
2023-01-19T00:45:16.493Z,99673.59
2023-01-19T00:47:19.257Z,99675.31
2023-01-19T00:49:22.118Z,99669.22
2023-01-19T00:51:25.319Z,99674.34
2023-01-19T00:53:32.351Z,99671.59
2023-01-19T00:55:35.527Z,99680.25
2023-01-19T00:57:39.553Z,99674.34
2023-01-19T00:59:43.710Z,99683.72
2023-01-19T01:01:46.759Z,99689.84
2023-01-19T01:03:49.680Z,99684.72
2023-01-19T01:05:52.483Z,99688.09
2023-01-19T01:07:55.286Z,99686.22
2023-01-19T01:09:58.064Z,99688.47
2023-01-19T01:12:00.890Z,99693.38
2023-01-19T01:14:03.648Z,99687.44
2023-01-19T01:16:09.749Z,99681.84
2023-01-19T01:18:12.539Z,99687.97
2023-01-19T01:20:17.803Z,99691.25
2023-01-19T01:22:20.775Z,99686.22
2023-01-19T01:24:23.587Z,99691.44
2023-01-19T01:26:27.151Z,99689.13
2023-01-19T01:28:30.584Z,99687.59
2023-01-19T01:30:33.471Z,99688.47
2023-01-19T01:32:37.574Z,99693.81
2023-01-19T01:34:40.672Z,99694.53
2023-01-19T01:36:44.198Z,99697.97
2023-01-19T01:38:47.499Z,99691.84
2023-01-19T01:40:50.371Z,99696.00
2023-01-19T01:42:53.172Z,99696.19
2023-01-19T01:44:57.646Z,99694.41
2023-01-19T01:47:00.491Z,99696.25
2023-01-19T01:49:08.967Z,99697.91
2023-01-19T01:51:24.016Z,99691.97
2023-01-19T01:53:27.845Z,99708.75
2023-01-19T01:55:32.979Z,99704.44
2023-01-19T01:57:36.766Z,99696.44
2023-01-19T01:59:44.330Z,99708.38
2023-01-19T02:02:16.330Z,99704.19
2023-01-19T02:04:21.343Z,99706.47
2023-01-19T02:06:24.616Z,99702.16
2023-01-19T02:08:50.823Z,99705.47
2023-01-19T02:11:12.959Z,99704.53
2023-01-19T02:13:19.515Z,99706.91
2023-01-19T02:15:22.426Z,99701.78
2023-01-19T02:17:25.353Z,99703.47
2023-01-19T02:19:34.870Z,99700.91
2023-01-19T02:21:43.805Z,99701.66
2023-01-19T02:23:50.399Z,99698.28
2023-01-19T02:25:54.366Z,99695.66
2023-01-19T02:27:57.985Z,99691.25
2023-01-19T02:30:03.543Z,99700.66
2023-01-19T02:32:06.839Z,99692.97
2023-01-19T02:34:12.738Z,99695.78
2023-01-19T02:36:17.647Z,99693.94
2023-01-19T02:38:20.990Z,99690.22
2023-01-19T02:40:27.947Z,99693.53
2023-01-19T02:42:36.003Z,99687.59
2023-01-19T02:44:40.597Z,99690.16
2023-01-19T02:46:44.604Z,99691.78
2023-01-19T02:48:47.394Z,99688.41
2023-01-19T02:50:53.096Z,99696.06
2023-01-19T02:53:07.304Z,99705.63
2023-01-19T02:55:19.356Z,99697.41
2023-01-19T02:57:43.641Z,99703.25
2023-01-19T03:00:07.868Z,99705.63
2023-01-19T03:02:22.711Z,99701.38
2023-01-19T03:04:34.557Z,99706.25
2023-01-19T03:06:47.573Z,99700.06
2023-01-19T03:08:56.244Z,99708.47
2023-01-19T03:11:03.409Z,99700.25
2023-01-19T03:13:12.658Z,99702.81
2023-01-19T03:15:20.225Z,99711.75
2023-01-19T03:17:23.440Z,99704.09
2023-01-19T03:19:29.747Z,99705.75
2023-01-19T03:21:37.075Z,99704.22
2023-01-19T03:23:43.053Z,99705.47
2023-01-19T03:25:48.287Z,99704.78
2023-01-19T03:27:54.949Z,99708.97
2023-01-19T03:30:02.543Z,99709.09
2023-01-19T03:32:10.414Z,99710.44
2023-01-19T03:34:16.133Z,99708.69
2023-01-19T03:36:22.419Z,99711.38
2023-01-19T03:38:28.299Z,99714.72
2023-01-19T03:40:33.679Z,99715.56
2023-01-19T03:42:37.839Z,99716.66
2023-01-19T03:44:42.614Z,99716.91
2023-01-19T03:46:48.737Z,99714.88
2023-01-19T03:48:52.135Z,99708.69
2023-01-19T03:50:56.519Z,99713.00
2023-01-19T03:53:06.153Z,99713.84
2023-01-19T03:55:09.966Z,99715.69
2023-01-19T03:57:12.839Z,99717.44
2023-01-19T03:59:17.425Z,99713.91
2023-01-19T04:01:22.748Z,99719.09
2023-01-19T04:03:27.077Z,99718.13
2023-01-19T04:05:30.324Z,99729.22
2023-01-19T04:07:33.211Z,99726.47
2023-01-19T04:09:36.051Z,99726.59
2023-01-19T04:11:38.812Z,99724.09
2023-01-19T04:13:41.637Z,99730.78
2023-01-19T04:15:44.479Z,99722.94
2023-01-19T04:17:47.263Z,99725.59
2023-01-19T04:19:51.360Z,99724.69
2023-01-19T04:21:55.273Z,99726.22
2023-01-19T04:23:58.996Z,99725.06
2023-01-19T04:26:04.081Z,99726.75
2023-01-19T04:28:06.845Z,99724.63
2023-01-19T04:30:11.008Z,99731.44
2023-01-19T04:32:14.679Z,99728.09
2023-01-19T04:34:17.665Z,99733.34
2023-01-19T04:36:24.750Z,99735.28
2023-01-19T04:38:27.785Z,99733.75
2023-01-19T04:40:30.655Z,99740.72
2023-01-19T04:42:33.449Z,99734.13
2023-01-19T04:44:36.207Z,99732.50
2023-01-19T04:46:39.074Z,99734.63
2023-01-19T04:48:42.312Z,99730.72
2023-01-19T04:50:45.237Z,99732.25
2023-01-19T04:52:49.458Z,99734.88
2023-01-19T04:54:52.777Z,99738.22
2023-01-19T04:56:55.534Z,99735.72
2023-01-19T04:58:58.359Z,99736.50
2023-01-19T05:01:01.422Z,99735.47
2023-01-19T05:03:04.934Z,99734.56
2023-01-19T05:05:08.610Z,99740.59
2023-01-19T05:07:11.481Z,99735.34
2023-01-19T05:09:15.761Z,99744.00
2023-01-19T05:11:18.646Z,99748.69
2023-01-19T05:13:21.442Z,99744.38
2023-01-19T05:15:24.390Z,99747.88
2023-01-19T05:17:27.132Z,99747.34
2023-01-19T05:19:30.056Z,99758.31
2023-01-19T05:21:32.917Z,99759.16
2023-01-19T05:23:35.992Z,99764.44
2023-01-19T05:25:40.134Z,99762.13
2023-01-19T05:27:42.904Z,99762.88
2023-01-19T05:29:45.730Z,99759.59
2023-01-19T05:31:49.061Z,99756.06
2023-01-19T05:33:51.927Z,99752.72
2023-01-19T05:35:55.875Z,99743.09
2023-01-19T05:37:58.707Z,99737.13
2023-01-19T05:40:01.536Z,99731.81
2023-01-19T05:42:06.204Z,99741.97
2023-01-19T05:44:10.321Z,99746.19
2023-01-19T05:46:13.151Z,99748.81
2023-01-19T05:48:16.020Z,99746.31
2023-01-19T05:50:18.971Z,99743.81
2023-01-19T05:52:21.875Z,99739.72
2023-01-19T05:54:24.705Z,99744.19
2023-01-19T05:56:28.337Z,99747.22
2023-01-19T05:58:34.345Z,99740.47
2023-01-19T06:00:37.263Z,99748.88
2023-01-19T06:02:40.115Z,99749.91
2023-01-19T06:04:42.859Z,99752.47
2023-01-19T06:06:45.683Z,99751.50
2023-01-19T06:08:48.588Z,99758.19
2023-01-19T06:10:51.398Z,99748.06
2023-01-19T06:12:54.593Z,99752.19
2023-01-19T06:14:58.886Z,99751.50
2023-01-19T06:17:01.739Z,99755.94
2023-01-19T06:19:04.813Z,99752.81
2023-01-19T06:21:10.422Z,99759.66
2023-01-19T06:23:13.369Z,99758.03
2023-01-19T06:25:16.296Z,99762.94
2023-01-19T06:27:19.127Z,99775.22
2023-01-19T06:29:23.148Z,99778.41
2023-01-19T06:31:27.490Z,99780.97
2023-01-19T06:33:30.527Z,99784.81
2023-01-19T06:35:33.334Z,99788.41
2023-01-19T06:37:36.371Z,99782.22
2023-01-19T06:39:40.983Z,99791.47
2023-01-19T06:41:43.881Z,99786.94
2023-01-19T06:43:46.781Z,99789.56
2023-01-19T06:45:50.164Z,99782.19
2023-01-19T06:47:54.515Z,99789.94
2023-01-19T06:49:57.507Z,99799.28
2023-01-19T06:52:26.094Z,99802.38
2023-01-19T06:54:28.853Z,99804.78
2023-01-19T06:56:31.734Z,99808.88
2023-01-19T06:58:34.940Z,99810.66
2023-01-19T07:00:38.016Z,99812.66
2023-01-19T07:02:43.490Z,99811.09
2023-01-19T07:04:47.758Z,99807.94
2023-01-19T07:06:51.164Z,99816.38
2023-01-19T07:08:54.961Z,99807.13
2023-01-19T07:11:22.390Z,99812.50
2023-01-19T07:13:23.901Z,99814.00
2023-01-19T07:15:26.861Z,99814.66
2023-01-19T07:17:29.601Z,99815.66
2023-01-19T07:19:34.920Z,99816.50
2023-01-19T07:21:39.085Z,99813.94
2023-01-19T07:23:43.270Z,99822.66
2023-01-19T07:25:46.668Z,99812.91
2023-01-19T07:27:49.522Z,99822.41
2023-01-19T07:29:52.374Z,99825.78
2023-01-19T07:31:55.359Z,99823.41
2023-01-19T07:33:58.134Z,99822.34
2023-01-19T07:36:00.924Z,99829.28
2023-01-19T07:38:05.588Z,99828.75
2023-01-19T07:40:09.733Z,99833.63
2023-01-19T07:42:12.594Z,99837.84
2023-01-19T07:44:15.446Z,99843.13
2023-01-19T07:46:18.259Z,99839.91
2023-01-19T07:48:21.000Z,99848.44
2023-01-19T07:50:26.008Z,99853.50
2023-01-19T07:52:28.632Z,99860.13
2023-01-19T07:54:32.794Z,99859.22
2023-01-19T07:56:35.528Z,99854.00
2023-01-19T07:58:38.362Z,99858.25
2023-01-19T08:00:41.249Z,99863.63
2023-01-19T08:02:43.989Z,99855.25
2023-01-19T08:04:48.910Z,99860.50
2023-01-19T08:06:51.574Z,99866.72
2023-01-19T08:08:54.397Z,99874.06
2023-01-19T08:10:59.173Z,99872.88
2023-01-19T08:13:02.458Z,99879.09
2023-01-19T08:15:07.070Z,99874.28
2023-01-19T08:17:13.536Z,99873.25
2023-01-19T08:19:16.296Z,99874.34
2023-01-19T08:21:19.080Z,99869.41
2023-01-19T08:23:21.914Z,99869.22
2023-01-19T08:25:24.876Z,99877.88
2023-01-19T08:27:28.970Z,99877.09
2023-01-19T08:29:32.350Z,99867.78
2023-01-19T08:31:35.280Z,99870.53
2023-01-19T08:33:38.398Z,99869.47
2023-01-19T08:35:43.726Z,99864.72
2023-01-19T08:37:46.600Z,99860.28
2023-01-19T08:39:53.540Z,99861.13
2023-01-19T08:41:56.819Z,99852.53
2023-01-19T08:44:00.940Z,99853.94
2023-01-19T08:46:03.803Z,99853.44
2023-01-19T08:48:07.219Z,99852.50
2023-01-19T08:50:11.847Z,99849.38
2023-01-19T08:52:14.624Z,99848.75
2023-01-19T08:54:18.747Z,99857.94
2023-01-19T08:56:21.673Z,99864.81
2023-01-19T08:58:24.743Z,99864.69
2023-01-19T09:00:31.433Z,99868.53
2023-01-19T09:02:34.996Z,99867.53
2023-01-19T09:04:38.000Z,99869.34
2023-01-19T09:06:40.791Z,99864.38
2023-01-19T09:08:43.699Z,99864.44
2023-01-19T09:10:47.986Z,99862.34
2023-01-19T09:12:50.793Z,99863.81
2023-01-19T09:14:53.767Z,99865.03
2023-01-19T09:16:59.085Z,99864.66
2023-01-19T09:19:01.958Z,99867.97
2023-01-19T09:21:05.271Z,99866.78
2023-01-19T09:23:08.299Z,99868.44
2023-01-19T09:25:11.448Z,99866.50
2023-01-19T09:27:14.316Z,99867.34
2023-01-19T09:29:17.182Z,99865.75
2023-01-19T09:31:20.184Z,99869.66
2023-01-19T09:33:25.605Z,99873.91
2023-01-19T09:35:28.402Z,99874.25
2023-01-19T09:37:31.176Z,99864.50
2023-01-19T09:39:33.925Z,99871.41
2023-01-19T09:41:38.512Z,99873.44
2023-01-19T09:43:44.684Z,99870.50
2023-01-19T09:45:52.963Z,99870.31
2023-01-19T09:47:58.342Z,99866.72
2023-01-19T09:50:06.658Z,99869.19
2023-01-19T09:52:11.762Z,99868.56
2023-01-19T09:54:16.827Z,99872.19
2023-01-19T09:56:21.143Z,99862.97
2023-01-19T09:58:24.590Z,99873.06
2023-01-19T10:00:31.248Z,99877.91
2023-01-19T10:02:37.980Z,99873.22
2023-01-19T10:04:42.792Z,99874.75
2023-01-19T10:06:53.524Z,99868.94
2023-01-19T10:09:07.195Z,99874.25
2023-01-19T10:11:22.785Z,99867.84
2023-01-19T10:13:33.004Z,99869.81
2023-01-19T10:15:46.792Z,99877.69
2023-01-19T10:18:01.395Z,99864.69
2023-01-19T10:20:12.174Z,99871.38
2023-01-19T10:22:22.110Z,99874.16
2023-01-19T10:24:29.126Z,99869.47
2023-01-19T10:26:34.594Z,99865.53
2023-01-19T10:28:39.574Z,99868.09
2023-01-19T10:30:43.586Z,99870.31
2023-01-19T10:32:46.668Z,99869.53
2023-01-19T10:34:50.716Z,99875.34
2023-01-19T10:37:01.142Z,99876.25
2023-01-19T10:39:06.948Z,99876.63
2023-01-19T10:41:15.638Z,99870.00
2023-01-19T10:43:38.844Z,99870.97
2023-01-19T10:45:41.742Z,99879.78
2023-01-19T10:47:46.814Z,99871.78
2023-01-19T10:49:50.420Z,99871.41
2023-01-19T10:51:53.828Z,99873.56
2023-01-19T10:53:59.636Z,99880.00
2023-01-19T10:56:18.395Z,99875.72
2023-01-19T10:58:30.761Z,99878.84
2023-01-19T11:00:37.641Z,99873.34
2023-01-19T11:02:51.675Z,99876.94
2023-01-19T11:04:56.742Z,99880.78
2023-01-19T11:07:15.206Z,99871.81
2023-01-19T11:09:19.983Z,99876.38
2023-01-19T11:11:25.598Z,99874.75
2023-01-19T11:13:28.391Z,99879.22
2023-01-19T11:15:34.766Z,99873.59
2023-01-19T11:17:37.971Z,99867.94
2023-01-19T11:19:40.840Z,99871.41
2023-01-19T11:21:43.704Z,99870.69
2023-01-19T11:23:50.939Z,99868.09
2023-01-19T11:25:55.952Z,99870.56
2023-01-19T11:28:01.478Z,99870.13
2023-01-19T11:30:10.526Z,99870.59
2023-01-19T11:32:22.399Z,99869.44
2023-01-19T11:34:32.345Z,99871.44
2023-01-19T11:36:37.173Z,99864.69
2023-01-19T11:38:44.701Z,99864.69
2023-01-19T11:41:41.931Z,99864.50
2023-01-19T11:43:49.360Z,99853.97
2023-01-19T11:45:52.707Z,99852.47
2023-01-19T11:47:56.974Z,99860.50
2023-01-19T11:50:04.035Z,99856.94
2023-01-19T11:52:14.560Z,99846.56
2023-01-19T11:54:23.614Z,99847.81
2023-01-19T11:56:29.653Z,99842.38
2023-01-19T11:58:34.172Z,99846.84
2023-01-19T12:00:44.448Z,99844.63
2023-01-19T12:02:51.607Z,99840.66
2023-01-19T12:04:58.886Z,99837.28
2023-01-19T12:07:07.455Z,99846.09
2023-01-19T12:09:19.025Z,99844.47
2023-01-19T12:11:27.245Z,99847.00
2023-01-19T12:13:32.078Z,99846.22
2023-01-19T12:15:42.874Z,99847.03
2023-01-19T12:17:49.904Z,99845.44
2023-01-19T12:20:00.239Z,99842.72
2023-01-19T12:22:05.123Z,99835.81
2023-01-19T12:24:17.042Z,99834.19
2023-01-19T12:26:28.842Z,99829.81
2023-01-19T12:28:35.761Z,99832.75
2023-01-19T12:30:40.203Z,99831.81
2023-01-19T12:32:43.311Z,99830.19
2023-01-19T12:34:47.490Z,99834.38
2023-01-19T12:36:50.531Z,99824.91
2023-01-19T12:38:55.101Z,99823.13
2023-01-19T12:41:24.155Z,99824.09
2023-01-19T12:43:27.370Z,99820.75
2023-01-19T12:45:33.979Z,99827.28
2023-01-19T12:47:39.343Z,99820.53
2023-01-19T12:49:45.110Z,99820.41
2023-01-19T12:51:49.036Z,99811.09
2023-01-19T12:53:54.155Z,99815.47
2023-01-19T12:56:02.293Z,99820.47
2023-01-19T12:58:08.196Z,99817.78
2023-01-19T13:00:31.486Z,99822.38
2023-01-19T13:02:54.789Z,99820.88
2023-01-19T13:05:16.806Z,99820.66
2023-01-19T13:07:20.257Z,99821.63
2023-01-19T13:09:30.240Z,99822.78
2023-01-19T13:11:34.669Z,99820.41
2023-01-19T13:13:38.826Z,99822.16
2023-01-19T13:15:42.585Z,99822.09
2023-01-19T13:17:50.602Z,99821.16
2023-01-19T13:20:05.029Z,99819.53
2023-01-19T13:22:50.828Z,99825.56
2023-01-19T13:25:08.658Z,99830.72
2023-01-19T13:27:13.741Z,99829.72
2023-01-19T13:29:22.063Z,99828.69
2023-01-19T13:31:27.277Z,99835.41
2023-01-19T13:33:41.071Z,99828.50
2023-01-19T13:36:23.695Z,99824.28
2023-01-19T13:38:28.173Z,99824.50
2023-01-19T13:40:38.152Z,99828.06
2023-01-19T13:42:43.762Z,99838.44
2023-01-19T13:44:52.253Z,99835.00
2023-01-19T13:46:59.431Z,99829.88
2023-01-19T13:49:05.760Z,99832.44
2023-01-19T13:51:19.183Z,99840.28
2023-01-19T13:53:24.277Z,99836.81
2023-01-19T13:55:28.016Z,99839.97
2023-01-19T13:57:32.653Z,99835.50
2023-01-19T13:59:35.588Z,99839.13
2023-01-19T14:01:40.991Z,99840.41
2023-01-19T14:03:46.646Z,99840.88
2023-01-19T14:05:52.611Z,99845.25
2023-01-19T14:08:03.477Z,99849.25
2023-01-19T14:10:12.900Z,99849.25
2023-01-19T14:12:18.502Z,99845.06
2023-01-19T14:14:26.146Z,99850.19
2023-01-19T14:16:29.010Z,99848.53
2023-01-19T14:18:32.976Z,99851.06
2023-01-19T14:20:36.993Z,99846.78
2023-01-19T14:22:41.823Z,99845.97
2023-01-19T14:24:44.769Z,99850.34
2023-01-19T14:26:51.309Z,99848.53
2023-01-19T14:28:54.264Z,99857.16
2023-01-19T14:30:58.680Z,99853.00
2023-01-19T14:33:01.549Z,99853.69
2023-01-19T14:35:16.180Z,99858.72
2023-01-19T14:37:25.315Z,99857.84
2023-01-19T14:39:30.641Z,99858.97
2023-01-19T14:41:38.614Z,99859.50
2023-01-19T14:43:46.497Z,99863.28
2023-01-19T14:45:49.429Z,99864.78
2023-01-19T14:47:58.024Z,99861.22
2023-01-19T14:50:07.444Z,99858.84
2023-01-19T14:52:22.375Z,99865.91
2023-01-19T14:54:32.432Z,99869.41
2023-01-19T14:56:35.650Z,99860.03
2023-01-19T14:58:38.479Z,99866.88
2023-01-19T15:00:46.774Z,99872.06
2023-01-19T15:02:49.913Z,99871.94
2023-01-19T15:04:55.218Z,99873.75
2023-01-19T15:06:58.200Z,99873.97
2023-01-19T15:09:01.072Z,99874.16
2023-01-19T15:11:10.436Z,99869.09
2023-01-19T15:13:18.471Z,99868.78
2023-01-19T15:15:25.807Z,99868.41
2023-01-19T15:17:29.993Z,99872.78
2023-01-19T15:19:32.790Z,99879.03
2023-01-19T15:21:35.738Z,99871.94
2023-01-19T15:23:38.548Z,99880.34
2023-01-19T15:25:41.488Z,99877.41
2023-01-19T15:27:46.168Z,99879.41
2023-01-19T15:29:48.982Z,99878.69
2023-01-19T15:31:52.489Z,99883.06
2023-01-19T15:33:57.306Z,99876.84
2023-01-19T15:36:00.123Z,99882.84
2023-01-19T15:38:02.963Z,99877.84
2023-01-19T15:40:07.038Z,99883.03
2023-01-19T15:42:12.934Z,99885.69
2023-01-19T15:44:15.716Z,99880.50
2023-01-19T15:46:20.625Z,99878.06
2023-01-19T15:48:23.284Z,99883.84
2023-01-19T15:50:27.983Z,99883.06
2023-01-19T15:52:30.748Z,99884.88
2023-01-19T15:54:33.716Z,99888.31
2023-01-19T15:56:36.567Z,99895.13
2023-01-19T15:58:39.397Z,99894.31
2023-01-19T16:00:42.708Z,99891.88
2023-01-19T16:02:45.657Z,99891.75
2023-01-19T16:04:49.579Z,99893.66
2023-01-19T16:06:53.719Z,99889.19
2023-01-19T16:08:59.690Z,99896.84
2023-01-19T16:11:05.705Z,99897.78
2023-01-19T16:13:08.768Z,99907.06
2023-01-19T16:15:12.721Z,99901.06
2023-01-19T16:17:15.494Z,99914.84
2023-01-19T16:19:19.089Z,99906.06
2023-01-19T16:21:22.106Z,99912.81
2023-01-19T16:23:26.574Z,99903.41
2023-01-19T16:25:30.947Z,99911.00
2023-01-19T16:27:33.777Z,99918.63
2023-01-19T16:29:36.581Z,99917.69
2023-01-19T16:31:40.325Z,99913.28
2023-01-19T16:33:43.217Z,99919.63
2023-01-19T16:35:46.179Z,99919.38
2023-01-19T16:37:51.529Z,99920.03
2023-01-19T16:39:55.821Z,99924.03
2023-01-19T16:41:58.683Z,99922.06
2023-01-19T16:44:01.813Z,99923.84
2023-01-19T16:46:04.916Z,99919.56
2023-01-19T16:48:08.115Z,99921.88
2023-01-19T16:50:12.552Z,99927.66
2023-01-19T16:52:15.660Z,99920.56
2023-01-19T16:54:20.916Z,99923.97
2023-01-19T16:56:25.007Z,99921.41
2023-01-19T16:58:28.280Z,99922.75
2023-01-19T17:00:31.116Z,99920.03
2023-01-19T17:02:34.184Z,99925.81
2023-01-19T17:04:38.095Z,99923.41
2023-01-19T17:06:41.338Z,99921.66
2023-01-19T17:08:44.191Z,99923.94
2023-01-19T17:10:47.106Z,99929.88
2023-01-19T17:12:51.402Z,99925.56
2023-01-19T17:14:54.208Z,99924.75
2023-01-19T17:16:57.161Z,99925.81
2023-01-19T17:19:01.568Z,99931.06
2023-01-19T17:21:06.246Z,99924.25
2023-01-19T17:23:09.006Z,99928.44
2023-01-19T17:25:11.820Z,99924.22
2023-01-19T17:27:14.614Z,99927.78
2023-01-19T17:29:19.356Z,99928.69
2023-01-19T17:31:23.123Z,99926.13
2023-01-19T17:33:26.028Z,99932.06
2023-01-19T17:35:28.824Z,99934.44
2023-01-19T17:37:31.711Z,99930.25
2023-01-19T17:39:35.068Z,99934.31
2023-01-19T17:41:38.145Z,99940.44
2023-01-19T17:43:40.980Z,99939.56
2023-01-19T17:45:45.264Z,99938.75
2023-01-19T17:47:49.308Z,99936.19
2023-01-19T17:49:52.110Z,99948.13
2023-01-19T17:51:55.806Z,99946.88
2023-01-19T17:53:59.547Z,99949.50
2023-01-19T17:56:05.410Z,99954.84
2023-01-19T17:58:08.269Z,99948.97
2023-01-19T18:00:12.399Z,99943.84
2023-01-19T18:02:18.004Z,99944.69
2023-01-19T18:04:20.890Z,99950.63
2023-01-19T18:06:24.085Z,99945.44
2023-01-19T18:08:26.957Z,99946.34
2023-01-19T18:10:29.715Z,99949.03
2023-01-19T18:12:32.679Z,99948.22
2023-01-19T18:14:35.484Z,99956.66
2023-01-19T18:16:38.230Z,99957.66
2023-01-19T18:18:43.997Z,99955.19
2023-01-19T18:20:46.820Z,99958.22
2023-01-19T18:22:49.567Z,99955.25
2023-01-19T18:24:52.571Z,99962.06
2023-01-19T18:26:55.838Z,99959.34
2023-01-19T18:28:59.049Z,99956.03
2023-01-19T18:31:02.436Z,99954.31
2023-01-19T18:33:06.175Z,99957.69
2023-01-19T18:35:10.933Z,99962.88
2023-01-19T18:37:13.718Z,99959.50
2023-01-19T18:39:16.546Z,99956.94
2023-01-19T18:41:21.284Z,99956.25
2023-01-19T18:43:24.061Z,99955.44
2023-01-19T18:45:26.888Z,99958.06
2023-01-19T18:47:29.922Z,99966.50
2023-01-19T18:49:32.783Z,99963.84
2023-01-19T18:51:37.538Z,99961.28
2023-01-19T18:53:40.692Z,99968.97
2023-01-19T18:55:52.116Z,99964.69
2023-01-19T18:57:55.287Z,99962.94
2023-01-19T18:59:58.044Z,99960.31
2023-01-19T19:02:01.463Z,99964.66
2023-01-19T19:04:04.377Z,99962.13
2023-01-19T19:06:07.604Z,99963.84
2023-01-19T19:08:12.027Z,99959.56
2023-01-19T19:10:15.427Z,99961.16
2023-01-19T19:12:18.333Z,99967.97
2023-01-19T19:14:21.156Z,99959.47
2023-01-19T19:16:24.720Z,99963.72
2023-01-19T19:18:27.513Z,99967.97
2023-01-19T19:20:30.333Z,99968.81
2023-01-19T19:22:33.120Z,99975.63
2023-01-19T19:24:37.364Z,99970.44
2023-01-19T19:26:41.720Z,99969.63
2023-01-19T19:28:45.648Z,99976.31
2023-01-19T19:30:52.393Z,99975.44
2023-01-19T19:32:56.637Z,99973.75
2023-01-19T19:34:59.460Z,99973.75
2023-01-19T19:37:02.428Z,99976.38
2023-01-19T19:39:05.595Z,99979.78
2023-01-19T19:41:12.458Z,99974.69
2023-01-19T19:43:15.330Z,99985.78
2023-01-19T19:45:19.352Z,99984.03
2023-01-19T19:47:22.145Z,99987.53
2023-01-19T19:49:26.240Z,99982.47
2023-01-19T19:51:29.226Z,99985.03
2023-01-19T19:53:32.137Z,99979.03
2023-01-19T19:55:34.917Z,99982.41
2023-01-19T19:57:39.288Z,99981.50
2023-01-19T19:59:42.180Z,99980.66
2023-01-19T20:01:47.010Z,99981.44
2023-01-19T20:03:50.698Z,99984.03
2023-01-19T20:05:53.731Z,99988.34
2023-01-19T20:07:56.651Z,99988.34
2023-01-19T20:09:59.639Z,99991.03
2023-01-19T20:12:02.423Z,99991.78
2023-01-19T20:14:08.033Z,99999.47
2023-01-19T20:16:12.695Z,99996.69
2023-01-19T20:18:15.604Z,99995.78
2023-01-19T20:20:18.729Z,99995.81
2023-01-19T20:22:21.501Z,99997.69
2023-01-19T20:24:24.253Z,99998.50
2023-01-19T20:26:29.265Z,99996.00
2023-01-19T20:28:32.109Z,100006.19
2023-01-19T20:30:36.379Z,100002.81
2023-01-19T20:32:40.136Z,100003.59
2023-01-19T20:34:43.224Z,99997.59
2023-01-19T20:36:49.607Z,99993.25
2023-01-19T20:38:53.860Z,100001.75
2023-01-19T20:40:56.870Z,100000.84
2023-01-19T20:42:59.710Z,100000.84
2023-01-19T20:45:02.505Z,100007.59
2023-01-19T20:47:06.889Z,100011.00
2023-01-19T20:49:10.097Z,100008.22
2023-01-19T20:51:14.103Z,100011.69
2023-01-19T20:53:17.402Z,100016.13
2023-01-19T20:55:20.252Z,100009.00
2023-01-19T20:57:23.105Z,100015.00
2023-01-19T20:59:25.949Z,100015.75
2023-01-19T21:01:28.901Z,100010.63
2023-01-19T21:03:48.971Z,100017.53
2023-01-19T21:05:51.772Z,100015.41
2023-01-19T21:07:54.583Z,100017.97
2023-01-19T21:09:57.537Z,100017.19
2023-01-19T21:12:00.319Z,100025.75
2023-01-19T21:14:03.140Z,100027.56
2023-01-19T21:16:06.645Z,100021.69
2023-01-19T21:18:09.447Z,100024.03
2023-01-19T21:20:14.293Z,100029.94
2023-01-19T21:22:17.060Z,100032.06
2023-01-19T21:24:19.891Z,100028.69
2023-01-19T21:26:22.774Z,100033.03
2023-01-19T21:28:26.272Z,100031.44
2023-01-19T21:30:29.581Z,100033.19
2023-01-19T21:32:32.431Z,100037.44
2023-01-19T21:34:35.411Z,100035.72
2023-01-19T21:36:39.513Z,100036.50
2023-01-19T21:38:42.289Z,100039.03
2023-01-19T21:40:45.121Z,100046.78
2023-01-19T21:42:47.901Z,100045.03
2023-01-19T21:44:50.821Z,100052.72
2023-01-19T21:46:55.377Z,100050.28
2023-01-19T21:48:58.488Z,100055.28
2023-01-19T21:51:01.306Z,100056.19
2023-01-19T21:53:07.732Z,100055.34
2023-01-19T21:55:11.116Z,100065.50
2023-01-19T21:57:15.172Z,100062.97
2023-01-19T21:59:20.233Z,100067.19
2023-01-19T22:01:24.179Z,100064.63
2023-01-19T22:03:27.288Z,100065.44
2023-01-19T22:05:30.079Z,100069.00
2023-01-19T22:07:33.107Z,100068.16
2023-01-19T22:09:37.744Z,100063.16
2023-01-19T22:11:40.587Z,100070.00
2023-01-19T22:13:43.472Z,100070.94
2023-01-19T22:15:46.240Z,100073.50
2023-01-19T22:17:49.055Z,100077.75
2023-01-19T22:19:51.903Z,100080.38
2023-01-19T22:21:54.688Z,100077.81
2023-01-19T22:23:59.924Z,100079.56
2023-01-19T22:26:04.303Z,100083.13
2023-01-19T22:28:07.072Z,100083.06
2023-01-19T22:30:10.674Z,100080.50
2023-01-19T22:32:13.443Z,100082.25
2023-01-19T22:34:17.100Z,100082.25
2023-01-19T22:36:21.688Z,100085.75
2023-01-19T22:38:24.521Z,100080.72
2023-01-19T22:40:27.302Z,100079.00
2023-01-19T22:42:31.658Z,100078.00
2023-01-19T22:44:34.502Z,100084.28
2023-01-19T22:46:38.367Z,100089.03
2023-01-19T22:48:41.486Z,100083.75
2023-01-19T22:50:44.281Z,100084.78
2023-01-19T22:52:47.119Z,100084.97
2023-01-19T22:54:49.853Z,100086.91
2023-01-19T22:56:52.668Z,100087.91
2023-01-19T22:58:58.002Z,100090.63
2023-01-19T23:01:05.998Z,100087.28
2023-01-19T23:03:08.970Z,100093.31
2023-01-19T23:05:12.456Z,100095.91
2023-01-19T23:07:15.506Z,100085.63
2023-01-19T23:09:18.886Z,100092.59
2023-01-19T23:11:24.307Z,100089.16
2023-01-19T23:13:27.088Z,100087.38
2023-01-19T23:15:33.908Z,100092.53
2023-01-19T23:17:36.732Z,100094.16
2023-01-19T23:19:39.494Z,100091.53
2023-01-19T23:21:42.375Z,100099.09
2023-01-19T23:23:46.280Z,100092.28
2023-01-19T23:25:49.116Z,100100.78
2023-01-19T23:27:51.926Z,100092.16
2023-01-19T23:29:54.724Z,100098.91
2023-01-19T23:31:58.877Z,100095.53
2023-01-19T23:34:03.658Z,100098.91
2023-01-19T23:36:07.245Z,100096.28
2023-01-19T23:38:10.049Z,100105.69
2023-01-19T23:40:13.468Z,100105.69
2023-01-19T23:42:16.210Z,100098.78
2023-01-19T23:44:19.116Z,100103.16
2023-01-19T23:46:22.783Z,100098.78
2023-01-19T23:48:27.089Z,100103.00
2023-01-19T23:50:29.830Z,100109.84
2023-01-19T23:52:33.032Z,100109.03
2023-01-19T23:54:36.495Z,100108.19
2023-01-19T23:56:39.711Z,100108.19
2023-01-19T23:58:42.803Z,100113.25
